12:48
Airports
History
Links
Donate
Help keep this website running!
PayPal
Bitcoin
This page is community maintained. The information is intended for PC simulator navigation or reference.
Always use approved charts for navigation.
LF12
Moussoulens
Moussoulens (LF12)
Moussoulens, Languedoc-Roussillon, France (11170)
(U)
Lat/Lng:43° 16' 60" N / 2° 13' 0" E
43.283333 / 2.216667
Elevation:581'ft / 177mMSL
ID / ICAO:LF12
Runways:1
Longest:11-29
Asphalt 805m / 2,640ft
Nearby Weather12:30 GMT 2017-12-18
Nearby weather at LFMK, Salvaza located 6.4 nautical miles from LF12
Altimeter: 30.27
Visibility: 1.6 statute miles
Wind: 6 knots (from 270°)
Temp: 8°c / 46°f
Humidity: 93.4%

METAR: LFMK 181230Z AUTO 27006KT 2600 RA BR BKN014/// BKN019/// BKN034/// ///TCU 08/07 Q1025 TEMPO 27020G30KT BECMG 9999 RA OVC015

(Powered by phpweather)
Nearby VORs <50NM
Nearby NDBs
Runway 11 / 29
Dimensions:804.7 x 39.9m 2640' x 131'ft
Surface:Asphalt
Edge Lights:Medium intensity
Runway 11 [A]Runway 29 [B]
Heading:110°TH 290°TH
Lat:
Lng:
43° 17' 4.43"N
2° 12' 43.28"E
43° 16' 55.57"N
2° 13' 16.72"E
User Notes and Comments
43° 16' 60" N / 2° 13' 0" E
Distance To
Airport ID:
Nearby Airports
(C) Salvaza 6.4 NM
LFMK ( WX ) SE 136°
(U) La Montagne Noire 14.3 NM
LFMG NW 307°
4 Castelnaudary Villeneuve 14.8 NM
LFMW W 277°
(U) Revel Montgey 18.1 NM
LFIR NW 319°
(U) Mazamet 19.2 NM
LFCK N 10°
4 Puivert 26.9 NM
LFNW SSW 197°
(C) Lezignan-Corbieres 27.0 NM
LFMZ ESE 106°
VFR Chart
Flight Planning at SkyVector.com